Time;durP1;ratioP1;P1;durP2;ratioP2;P2;SDS_P1;SDS_P2;PMS_P1;PMS_P2;Temp;Humidity;BMP_temperature;BMP_pressure;BME280_temperature;BME280_humidity;BME280_pressure;Samples;Min_cycle;Max_cycle;Signal;HPM_P1;HPM_P2
2024/02/08 00:00:58;;;;;;;5.78;4.30;;;;;;;;;;5054413;28;20033;-67
2024/02/08 00:03:23;;;;;;;5.28;4.18;;;;;;;;;;5053690;28;20033;-68
2024/02/08 00:05:49;;;;;;;5.43;4.25;;;;;;;;;;5054174;28;20029;-67
2024/02/08 00:08:14;;;;;;;7.15;4.45;;;;;;;;;;5053982;28;20037;-68
2024/02/08 00:10:40;;;;;;;8.63;5.05;;;;;;;;;;5054363;28;20108;-66
2024/02/08 00:13:05;;;;;;;6.88;4.80;;;;;;;;;;5053742;28;20028;-66
2024/02/08 00:15:30;;;;;;;7.07;4.90;;;;;;;;;;5053868;28;20025;-65
2024/02/08 00:17:56;;;;;;;7.45;5.20;;;;;;;;;;5054284;28;20024;-65
2024/02/08 00:20:23;;;;;;;7.35;4.65;;;;;;;;;;5053987;28;20459;-65
2024/02/08 00:22:52;;;;;;;9.00;5.00;;;;;;;;;;5053519;28;20124;-65
2024/02/08 00:25:17;;;;;;;7.75;5.00;;;;;;;;;;5054167;28;20029;-65
2024/02/08 00:27:43;;;;;;;6.40;4.95;;;;;;;;;;5053778;28;20079;-66
2024/02/08 00:30:08;;;;;;;8.20;4.97;;;;;;;;;;5054188;28;20363;-65
2024/02/08 00:32:33;;;;;;;7.75;4.85;;;;;;;;;;5053817;28;20036;-65
2024/02/08 00:35:03;;;;;;;8.68;5.30;;;;;;;;;;5053783;28;20029;-66
2024/02/08 00:37:28;;;;;;;6.70;5.40;;;;;;;;;;5053411;28;20111;-65
2024/02/08 00:39:54;;;;;;;11.95;6.25;;;;;;;;;;5053478;28;20478;-66
2024/02/08 00:42:19;;;;;;;10.68;6.25;;;;;;;;;;5053760;28;20069;-66
2024/02/08 00:44:44;;;;;;;6.43;5.53;;;;;;;;;;5055275;28;20029;-67
2024/02/08 00:47:10;;;;;;;8.88;6.43;;;;;;;;;;5056284;28;20032;-68
2024/02/08 00:49:39;;;;;;;10.13;7.47;;;;;;;;;;5057755;28;20040;-67
2024/02/08 00:52:08;;;;;;;9.18;7.43;;;;;;;;;;5057709;28;20024;-67
2024/02/08 00:54:35;;;;;;;9.13;7.55;;;;;;;;;;5057748;28;20053;-67
2024/02/08 00:57:00;;;;;;;8.50;6.63;;;;;;;;;;5057693;28;20025;-67
2024/02/08 00:59:26;;;;;;;12.27;8.00;;;;;;;;;;5057602;28;20566;-67
2024/02/08 01:01:51;;;;;;;10.27;7.80;;;;;;;;;;5057825;28;20036;-67
2024/02/08 01:04:21;;;;;;;11.57;8.18;;;;;;;;;;5057823;28;20044;-67
2024/02/08 01:06:46;;;;;;;10.57;6.75;;;;;;;;;;5056012;28;20029;-66
2024/02/08 01:09:12;;;;;;;12.27;7.22;;;;;;;;;;5057103;28;20533;-67
2024/02/08 01:11:38;;;;;;;8.98;6.43;;;;;;;;;;5057655;28;20017;-68
2024/02/08 01:14:04;;;;;;;10.38;8.18;;;;;;;;;;5057747;28;20053;-68
2024/02/08 01:16:33;;;;;;;10.02;7.45;;;;;;;;;;5057637;28;20446;-66
2024/02/08 01:18:58;;;;;;;9.25;7.35;;;;;;;;;;5057097;28;20091;-66
2024/02/08 01:21:23;;;;;;;11.38;9.30;;;;;;;;;;5057212;28;20032;-66
2024/02/08 01:23:49;;;;;;;9.10;7.20;;;;;;;;;;5056574;28;20029;-66
2024/02/08 01:26:15;;;;;;;10.48;7.20;;;;;;;;;;5057431;28;20037;-65
2024/02/08 01:28:41;;;;;;;9.43;7.05;;;;;;;;;;5057422;28;20029;-65
2024/02/08 01:31:06;;;;;;;13.18;9.48;;;;;;;;;;5057216;28;20032;-65
2024/02/08 01:33:36;;;;;;;14.20;9.02;;;;;;;;;;5057509;28;20428;-65
2024/02/08 01:36:02;;;;;;;13.23;9.40;;;;;;;;;;5056517;28;20094;-66
2024/02/08 01:38:27;;;;;;;14.88;10.35;;;;;;;;;;5055281;28;20036;-66
2024/02/08 01:40:53;;;;;;;17.15;11.05;;;;;;;;;;5057247;28;20024;-66
2024/02/08 01:43:18;;;;;;;13.60;10.05;;;;;;;;;;5057146;28;20175;-66
2024/02/08 01:45:43;;;;;;;13.38;10.63;;;;;;;;;;5056923;28;20098;-66
2024/02/08 01:48:15;;;;;;;10.98;7.70;;;;;;;;;;5056033;28;20037;-68
2024/02/08 01:50:42;;;;;;;12.15;8.88;;;;;;;;;;5056721;28;20455;-68
2024/02/08 01:53:13;;;;;;;10.10;7.40;;;;;;;;;;5056558;28;20025;-67
2024/02/08 01:55:39;;;;;;;11.93;8.90;;;;;;;;;;5055867;28;20037;-67
2024/02/08 01:58:07;;;;;;;16.52;10.88;;;;;;;;;;5038358;28;20083;-67
2024/02/08 02:00:36;;;;;;;16.38;11.80;;;;;;;;;;5038245;28;20039;-67
2024/02/08 02:03:04;;;;;;;16.67;11.20;;;;;;;;;;5038586;28;20033;-67
2024/02/08 02:05:29;;;;;;;18.63;11.90;;;;;;;;;;5056382;28;20027;-67
2024/02/08 02:07:56;;;;;;;18.13;12.45;;;;;;;;;;5056954;28;20025;-68
2024/02/08 02:10:23;;;;;;;19.02;12.30;;;;;;;;;;5038383;28;20040;-68
2024/02/08 02:12:48;;;;;;;17.10;12.52;;;;;;;;;;5056237;28;20029;-68
2024/02/08 02:15:14;;;;;;;19.25;12.68;;;;;;;;;;5056262;28;20429;-68
2024/02/08 02:17:44;;;;;;;17.75;12.50;;;;;;;;;;5055968;28;20409;-68
2024/02/08 02:20:12;;;;;;;19.93;13.23;;;;;;;;;;5055662;28;20031;-69
2024/02/08 02:22:42;;;;;;;17.42;12.50;;;;;;;;;;5038453;28;20052;-68
2024/02/08 02:25:07;;;;;;;16.10;11.63;;;;;;;;;;5038630;28;20118;-68
2024/02/08 02:27:34;;;;;;;17.00;10.88;;;;;;;;;;5056150;28;20466;-68
2024/02/08 02:29:59;;;;;;;15.02;10.48;;;;;;;;;;5055714;28;20048;-68
2024/02/08 02:32:30;;;;;;;14.23;10.77;;;;;;;;;;5056072;28;20451;-68
2024/02/08 02:34:56;;;;;;;16.02;11.48;;;;;;;;;;5056057;28;20103;-67
2024/02/08 02:37:22;;;;;;;15.52;11.40;;;;;;;;;;5055367;28;20568;-68
2024/02/08 02:39:49;;;;;;;19.27;12.75;;;;;;;;;;5055662;28;20067;-68
2024/02/08 02:42:14;;;;;;;18.73;12.35;;;;;;;;;;5055352;28;20028;-68
2024/02/08 02:44:40;;;;;;;19.67;12.13;;;;;;;;;;5055588;28;20029;-68
2024/02/08 02:47:05;;;;;;;15.57;11.45;;;;;;;;;;5055710;28;20071;-68
2024/02/08 02:49:36;;;;;;;16.25;11.68;;;;;;;;;;5054901;28;20029;-68
2024/02/08 02:52:02;;;;;;;15.85;11.65;;;;;;;;;;5054946;28;20060;-68
2024/02/08 02:54:30;;;;;;;17.50;11.82;;;;;;;;;;5055743;28;20072;-68
2024/02/08 02:56:56;;;;;;;14.93;11.60;;;;;;;;;;5053848;28;20021;-68
2024/02/08 02:59:26;;;;;;;15.82;11.48;;;;;;;;;;5055111;28;20120;-68
2024/02/08 03:01:55;;;;;;;18.47;12.43;;;;;;;;;;5055102;28;20414;-67
2024/02/08 03:04:21;;;;;;;19.35;12.15;;;;;;;;;;5055309;28;20033;-67
2024/02/08 03:06:47;;;;;;;19.15;12.82;;;;;;;;;;5055083;28;20039;-67
2024/02/08 03:09:17;;;;;;;18.10;12.07;;;;;;;;;;5053985;28;20048;-66
2024/02/08 03:11:43;;;;;;;19.33;12.68;;;;;;;;;;5055135;28;20528;-66
2024/02/08 03:14:09;;;;;;;19.70;13.98;;;;;;;;;;5036881;28;20025;-66
2024/02/08 03:16:36;;;;;;;17.20;12.35;;;;;;;;;;5054873;28;20116;-65
2024/02/08 03:19:05;;;;;;;17.02;12.55;;;;;;;;;;5055327;28;20412;-66
2024/02/08 03:21:32;;;;;;;16.73;11.88;;;;;;;;;;5054501;28;20033;-66
2024/02/08 03:23:58;;;;;;;16.67;11.75;;;;;;;;;;5055082;28;20036;-66
2024/02/08 03:26:23;;;;;;;18.38;11.98;;;;;;;;;;5055075;28;20474;-65
2024/02/08 03:28:51;;;;;;;15.18;10.82;;;;;;;;;;5054664;28;20082;-65
2024/02/08 03:31:17;;;;;;;15.20;11.40;;;;;;;;;;5036787;28;20362;-64
2024/02/08 03:33:43;;;;;;;18.15;12.57;;;;;;;;;;5054784;28;20036;-64
2024/02/08 03:36:09;;;;;;;18.67;13.10;;;;;;;;;;5054783;28;20047;-64
2024/02/08 03:38:34;;;;;;;17.30;12.07;;;;;;;;;;5054227;28;20036;-67
2024/02/08 03:41:00;;;;;;;19.05;12.75;;;;;;;;;;5054315;28;20037;-68
2024/02/08 03:43:26;;;;;;;14.82;10.45;;;;;;;;;;5054270;28;20036;-67
2024/02/08 03:45:55;;;;;;;15.18;10.73;;;;;;;;;;5054432;28;20088;-68
2024/02/08 03:48:24;;;;;;;18.20;12.65;;;;;;;;;;5054723;28;20055;-67
2024/02/08 03:50:52;;;;;;;16.13;12.15;;;;;;;;;;5036701;28;20473;-67
2024/02/08 03:53:20;;;;;;;20.23;14.65;;;;;;;;;;5054118;28;20025;-67
2024/02/08 03:55:47;;;;;;;19.42;13.82;;;;;;;;;;5054385;28;20021;-66
2024/02/08 03:58:14;;;;;;;17.55;12.82;;;;;;;;;;5054583;28;20036;-66
2024/02/08 04:00:42;;;;;;;19.67;14.50;;;;;;;;;;5053932;28;20471;-68
2024/02/08 04:03:13;;;;;;;22.75;15.93;;;;;;;;;;5036147;28;20029;-67
2024/02/08 04:05:58;;;;;;;23.27;15.90;;;;;;;;;;5054270;28;20037;-67
2024/02/08 04:54:37;;;;;;;6.72;4.90;;;;;;;;;;5052485;28;20025;-68
2024/02/08 04:57:03;;;;;;;6.78;4.88;;;;;;;;;;5052432;28;20025;-67
2024/02/08 04:59:29;;;;;;;6.07;5.00;;;;;;;;;;5052193;28;20033;-65
2024/02/08 05:01:54;;;;;;;8.43;5.78;;;;;;;;;;5052349;28;20035;-66
2024/02/08 05:04:22;;;;;;;7.25;6.07;;;;;;;;;;5052085;28;20506;-69
2024/02/08 05:06:48;;;;;;;8.57;6.05;;;;;;;;;;5051740;28;20435;-64
2024/02/08 05:09:19;;;;;;;8.50;6.05;;;;;;;;;;5052709;28;20083;-63
2024/02/08 05:11:44;;;;;;;8.40;6.45;;;;;;;;;;5053245;28;20441;-64
2024/02/08 05:14:10;;;;;;;10.82;6.53;;;;;;;;;;5053637;28;20048;-63
2024/02/08 05:16:37;;;;;;;8.27;5.93;;;;;;;;;;5053175;28;20028;-64
2024/02/08 05:19:04;;;;;;;8.05;5.90;;;;;;;;;;5053775;28;20025;-64
2024/02/08 05:21:31;;;;;;;7.07;6.03;;;;;;;;;;5053256;28;20087;-63
2024/02/08 05:23:58;;;;;;;8.13;5.70;;;;;;;;;;5053206;28;20107;-64
2024/02/08 05:26:25;;;;;;;8.13;6.20;;;;;;;;;;5035154;28;20090;-64
2024/02/08 05:28:52;;;;;;;8.50;5.65;;;;;;;;;;5053240;28;20033;-64
2024/02/08 05:31:18;;;;;;;8.30;5.80;;;;;;;;;;5054242;28;20037;-63
2024/02/08 05:33:44;;;;;;;9.25;6.40;;;;;;;;;;5057283;28;20040;-63
2024/02/08 05:36:10;;;;;;;14.82;7.93;;;;;;;;;;5056902;28;20041;-64
2024/02/08 05:38:41;;;;;;;26.20;11.52;;;;;;;;;;5056646;28;20060;-64
2024/02/08 05:41:08;;;;;;;35.38;14.77;;;;;;;;;;5056988;28;20037;-64
2024/02/08 05:43:44;;;;;;;22.30;9.43;;;;;;;;;;5056963;28;20017;-64
2024/02/08 05:46:25;;;;;;;21.90;9.98;;;;;;;;;;5094711;22;20056;-57
2024/02/08 05:48:51;;;;;;;;;;;;;;;;;;5117232;28;20020;-64
2024/02/08 05:51:20;;;;;;;28.67;13.65;;;;;;;;;;5129299;22;19919;-63
2024/02/08 05:53:53;;;;;;;34.38;17.95;;;;;;;;;;5135278;22;20054;-57
2024/02/08 05:56:21;;;;;;;31.48;13.48;;;;;;;;;;5123939;22;20066;-57
2024/02/08 05:58:51;;;;;;;18.77;11.15;;;;;;;;;;5129305;22;20051;-57
2024/02/08 06:01:19;;;;;;;18.27;12.73;;;;;;;;;;5117424;28;20032;-57
2024/02/08 06:03:46;;;;;;;60.72;34.08;;;;;;;;;;5116787;28;20032;-56
2024/02/08 06:06:33;;;;;;;39.50;21.63;;;;;;;;;;5096358;28;20144;-56
2024/02/08 06:09:08;;;;;;;20.63;12.23;;;;;;;;;;5114752;28;20130;-56
2024/02/08 06:11:37;;;;;;;18.67;12.82;;;;;;;;;;5114574;28;20091;-57
2024/02/08 06:14:21;;;;;;;20.35;13.73;;;;;;;;;;5114652;28;20380;-56
2024/02/08 06:16:47;;;;;;;20.13;12.32;;;;;;;;;;5114518;28;20023;-57
2024/02/08 06:19:17;;;;;;;19.38;12.07;;;;;;;;;;5114462;28;20610;-56
2024/02/08 06:21:45;;;;;;;13.27;9.23;;;;;;;;;;5114502;28;20027;-56
2024/02/08 06:26:52;;;;;;;9.75;6.45;;;;;;;;;;5114398;28;20031;-56
2024/02/08 06:29:18;;;;;;;9.68;6.90;;;;;;;;;;5114959;28;20110;-56
2024/02/08 06:31:50;;;;;;;9.60;6.70;;;;;;;;;;5116317;28;20023;-56
2024/02/08 06:36:58;;;;;;;9.15;6.38;;;;;;;;;;5116472;28;20034;-56
2024/02/08 06:39:28;;;;;;;9.80;6.82;;;;;;;;;;5098597;28;20471;-56
2024/02/08 06:42:07;;;;;;;11.13;7.82;;;;;;;;;;5115932;28;20028;-56
2024/02/08 06:47:54;;;;;;;10.32;6.75;;;;;;;;;;5116573;28;20044;-56
2024/02/08 07:41:58;;;;;;;29.30;12.00;;;;;;;;;;5115456;28;20416;-57
2024/02/08 07:44:23;;;;;;;20.08;10.00;;;;;;;;;;5114886;28;20032;-57
2024/02/08 07:46:55;;;;;;;17.58;10.30;;;;;;;;;;5114833;28;20051;-57
2024/02/08 07:49:39;;;;;;;15.18;9.85;;;;;;;;;;5115313;28;20031;-57
2024/02/08 07:52:14;;;;;;;17.27;10.10;;;;;;;;;;5115010;28;20028;-57
2024/02/08 07:54:40;;;;;;;16.65;10.38;;;;;;;;;;5114387;28;20039;-57
2024/02/08 07:57:11;;;;;;;21.40;10.77;;;;;;;;;;5114511;28;20031;-57
2024/02/08 07:59:39;;;;;;;17.45;9.45;;;;;;;;;;5114663;28;20042;-57
2024/02/08 08:02:12;;;;;;;13.55;8.07;;;;;;;;;;5096704;28;20107;-57
2024/02/08 08:04:52;;;;;;;12.45;6.90;;;;;;;;;;5114874;28;20114;-57
2024/02/08 08:07:23;;;;;;;12.07;7.03;;;;;;;;;;5115090;28;20023;-57
2024/02/08 08:09:55;;;;;;;;;;;;;;;;;;5115173;28;20053;-56
2024/02/08 08:12:22;;;;;;;10.20;5.32;;;;;;;;;;5114476;28;19914;-56
2024/02/08 08:15:13;;;;;;;8.70;5.70;;;;;;;;;;5114677;28;20066;-57
2024/02/08 08:17:42;;;;;;;13.10;10.25;;;;;;;;;;5114616;28;20028;-57
2024/02/08 08:20:56;;;;;;;24.70;18.45;;;;;;;;;;5096126;28;20126;-57
2024/02/08 08:23:07;;;;;;;8.50;6.20;;;;;;;;;;5114375;28;20044;-57
2024/02/08 08:25:59;;;;;;;15.40;7.57;;;;;;;;;;5114877;28;20119;-57
2024/02/08 08:28:30;;;;;;;7.38;4.05;;;;;;;;;;5114058;28;20035;-57
2024/02/08 08:31:00;;;;;;;15.88;12.82;;;;;;;;;;5114208;28;20376;-57
2024/02/08 08:35:37;;;;;;;20.10;14.88;;;;;;;;;;5114158;28;20027;-57
2024/02/08 08:36:30;;;;;;;8.88;5.05;;;;;;;;;;5106177;28;20393;-56
2024/02/08 08:39:46;;;;;;;51.90;38.83;;;;;;;;;;5095893;28;20028;-57
2024/02/08 08:41:47;;;;;;;9.82;8.07;;;;;;;;;;5114026;28;20063;-57
2024/02/08 08:44:13;;;;;;;18.35;11.73;;;;;;;;;;5114361;28;20063;-57
2024/02/08 08:46:41;;;;;;;18.40;11.52;;;;;;;;;;5114280;28;20036;-56
2024/02/08 08:49:14;;;;;;;28.60;18.33;;;;;;;;;;5114212;28;20027;-57
2024/02/08 08:51:42;;;;;;;20.23;12.65;;;;;;;;;;5114531;28;20415;-57
2024/02/08 08:54:14;;;;;;;19.45;12.32;;;;;;;;;;5095820;28;20024;-57
2024/02/08 08:56:42;;;;;;;12.32;8.52;;;;;;;;;;5114235;28;20031;-57
2024/02/08 08:59:07;;;;;;;14.63;11.20;;;;;;;;;;5113806;28;20047;-57
2024/02/08 09:01:36;;;;;;;12.98;8.85;;;;;;;;;;5113902;28;20149;-57
2024/02/08 09:04:22;;;;;;;21.85;11.68;;;;;;;;;;5095638;28;20043;-57
2024/02/08 09:06:49;;;;;;;27.92;14.63;;;;;;;;;;5117401;28;20024;-56
2024/02/08 09:11:58;;;;;;;18.02;10.15;;;;;;;;;;5118433;28;20028;-56
2024/02/08 09:14:32;;;;;;;14.55;8.10;;;;;;;;;;5117829;28;20480;-57
2024/02/08 09:17:02;;;;;;;8.65;6.25;;;;;;;;;;5117799;28;20023;-57
2024/02/08 09:19:28;;;;;;;12.13;5.90;;;;;;;;;;5118038;28;20036;-56
2024/02/08 09:21:58;;;;;;;8.68;4.72;;;;;;;;;;5117969;28;20123;-56
2024/02/08 09:24:24;;;;;;;;;;;;;;;;;;5118057;28;20161;-57
2024/02/08 09:27:15;;;;;;;8.80;5.50;;;;;;;;;;5118164;28;19969;-57
2024/02/08 09:29:42;;;;;;;10.02;5.07;;;;;;;;;;5117772;28;20454;-57
2024/02/08 09:34:54;;;;;;;11.65;5.70;;;;;;;;;;5117409;28;20024;-56
2024/02/08 09:37:19;;;;;;;9.73;5.63;;;;;;;;;;5117422;28;20097;-56
2024/02/08 09:39:58;;;;;;;12.05;5.97;;;;;;;;;;5117326;28;20033;-57
2024/02/08 09:42:30;;;;;;;10.73;5.65;;;;;;;;;;5117592;28;20197;-57
2024/02/08 09:45:13;;;;;;;20.00;9.73;;;;;;;;;;5117807;28;20027;-57
2024/02/08 09:47:44;;;;;;;14.23;7.90;;;;;;;;;;5117190;28;20030;-57
2024/02/08 09:50:21;;;;;;;23.08;14.75;;;;;;;;;;5117368;28;20038;-57
2024/02/08 09:52:56;;;;;;;14.63;10.00;;;;;;;;;;5117082;28;20381;-57
2024/02/08 09:55:32;;;;;;;25.55;19.23;;;;;;;;;;5117372;28;20020;-57
2024/02/08 09:58:04;;;;;;;54.90;42.47;;;;;;;;;;5116857;28;20128;-57
2024/02/08 10:00:54;;;;;;;38.53;25.92;;;;;;;;;;5116969;28;20051;-57
2024/02/08 10:03:31;;;;;;;22.60;14.82;;;;;;;;;;5117516;28;20427;-57
2024/02/08 10:06:12;;;;;;;24.02;13.68;;;;;;;;;;5117136;28;20032;-57
2024/02/08 10:08:50;;;;;;;;;;;;;;;;;;5117406;28;20047;-57
2024/02/08 10:14:02;;;;;;;18.80;12.10;;;;;;;;;;5116984;28;20099;-57
2024/02/08 10:16:48;;;;;;;12.40;8.85;;;;;;;;;;5116869;28;20024;-57
2024/02/08 10:21:57;;;;;;;10.05;5.70;;;;;;;;;;5116845;28;20038;-57
2024/02/08 10:24:39;;;;;;;11.77;9.05;;;;;;;;;;5116765;28;20032;-57
2024/02/08 10:27:06;;;;;;;16.40;11.07;;;;;;;;;;5116447;28;20461;-57
2024/02/08 10:29:32;;;;;;;18.92;12.90;;;;;;;;;;5098151;28;20077;-57
2024/02/08 10:32:00;;;;;;;12.48;7.18;;;;;;;;;;5116361;28;20015;-57
2024/02/08 10:34:33;;;;;;;12.80;7.97;;;;;;;;;;5116572;28;20450;-57
2024/02/08 10:36:59;;;;;;;10.75;8.57;;;;;;;;;;5116258;28;20051;-57
2024/02/08 10:39:25;;;;;;;15.90;10.35;;;;;;;;;;5098023;28;20031;-57
2024/02/08 10:41:57;;;;;;;14.52;9.95;;;;;;;;;;5116438;28;20027;-57
2024/02/08 10:44:24;;;;;;;10.40;6.30;;;;;;;;;;5116440;28;20040;-57
2024/02/08 10:47:06;;;;;;;13.57;6.85;;;;;;;;;;5097792;28;20015;-57
2024/02/08 10:49:35;;;;;;;8.25;6.53;;;;;;;;;;5116510;28;20024;-56
2024/02/08 10:52:01;;;;;;;10.63;7.00;;;;;;;;;;5116298;28;20377;-57
2024/02/08 10:54:39;;;;;;;11.73;7.78;;;;;;;;;;5115901;28;20257;-57
2024/02/08 10:57:17;;;;;;;16.65;10.85;;;;;;;;;;5115954;28;20023;-57
2024/02/08 10:59:50;;;;;;;37.92;25.25;;;;;;;;;;5116068;28;20483;-56
2024/02/08 11:03:00;;;;;;;11.05;8.07;;;;;;;;;;5115990;28;20023;-57
2024/02/08 11:05:21;;;;;;;14.85;9.57;;;;;;;;;;5112593;28;20044;-57
2024/02/08 11:07:48;;;;;;;12.10;6.70;;;;;;;;;;5116184;28;20028;-57
2024/02/08 11:10:20;;;;;;;11.50;7.63;;;;;;;;;;5115800;28;20035;-57
2024/02/08 11:12:48;;;;;;;12.35;8.93;;;;;;;;;;5115523;28;20020;-56
2024/02/08 11:15:15;;;;;;;15.88;8.52;;;;;;;;;;5115531;28;20023;-57
2024/02/08 11:17:49;;;;;;;11.02;7.38;;;;;;;;;;5115740;28;20024;-57
2024/02/08 11:20:42;;;;;;;13.68;7.43;;;;;;;;;;5115680;28;20114;-57
2024/02/08 11:23:18;;;;;;;10.43;6.82;;;;;;;;;;5097099;28;20035;-57
2024/02/08 11:25:47;;;;;;;12.02;6.97;;;;;;;;;;5097075;28;20216;-57
2024/02/08 11:28:15;;;;;;;12.90;7.75;;;;;;;;;;5096754;28;20028;-57
2024/02/08 11:30:40;;;;;;;10.73;7.50;;;;;;;;;;5114870;28;20118;-56
2024/02/08 11:33:12;;;;;;;9.80;7.47;;;;;;;;;;5115113;28;20493;-57
2024/02/08 11:35:56;;;;;;;11.55;6.97;;;;;;;;;;5097234;28;20034;-57
2024/02/08 11:38:28;;;;;;;17.60;11.13;;;;;;;;;;5115348;28;20060;-57
2024/02/08 11:40:57;;;;;;;17.30;11.95;;;;;;;;;;5115251;28;20028;-57
2024/02/08 11:43:25;;;;;;;8.80;7.30;;;;;;;;;;5115237;28;20024;-57
2024/02/08 11:45:56;;;;;;;9.55;6.50;;;;;;;;;;5115198;28;20027;-57
2024/02/08 11:48:29;;;;;;;12.68;6.72;;;;;;;;;;5115368;28;20373;-56
2024/02/08 11:51:00;;;;;;;6.97;5.50;;;;;;;;;;5114828;28;20031;-56
2024/02/08 11:53:31;;;;;;;9.13;6.50;;;;;;;;;;5097660;28;20031;-56
2024/02/08 11:56:02;;;;;;;19.48;11.00;;;;;;;;;;5114756;28;20465;-56
2024/02/08 11:58:29;;;;;;;11.20;7.10;;;;;;;;;;5114531;28;20062;-57
2024/02/08 12:00:56;;;;;;;8.93;6.47;;;;;;;;;;5114930;28;20023;-56
2024/02/08 12:03:22;;;;;;;8.43;6.60;;;;;;;;;;5114577;28;20481;-57
2024/02/08 12:05:51;;;;;;;8.38;6.13;;;;;;;;;;5114598;28;20407;-57
2024/02/08 12:08:17;;;;;;;9.25;5.80;;;;;;;;;;5114453;28;20110;-57
2024/02/08 12:10:47;;;;;;;7.32;6.35;;;;;;;;;;5115068;28;20153;-57
2024/02/08 12:13:13;;;;;;;7.90;6.05;;;;;;;;;;5114746;28;20397;-57
2024/02/08 12:15:44;;;;;;;8.50;6.47;;;;;;;;;;5096228;28;20027;-56
2024/02/08 12:18:10;;;;;;;7.28;5.97;;;;;;;;;;5114642;28;20028;-57
2024/02/08 12:20:36;;;;;;;9.85;7.28;;;;;;;;;;5114601;28;20346;-57
2024/02/08 12:23:02;;;;;;;8.82;7.15;;;;;;;;;;5114639;28;20140;-57
2024/02/08 12:25:28;;;;;;;9.05;5.90;;;;;;;;;;5114314;28;20095;-57
2024/02/08 12:27:57;;;;;;;7.38;6.20;;;;;;;;;;5096102;28;20020;-57
2024/02/08 12:30:25;;;;;;;9.02;6.28;;;;;;;;;;5114163;28;20020;-57
2024/02/08 12:32:51;;;;;;;6.22;5.60;;;;;;;;;;5114489;28;20461;-56
2024/02/08 12:35:20;;;;;;;10.70;6.57;;;;;;;;;;5114442;28;20023;-57
2024/02/08 12:37:46;;;;;;;11.23;7.22;;;;;;;;;;5114143;28;20029;-57
2024/02/08 12:40:12;;;;;;;13.27;9.50;;;;;;;;;;5114393;28;20037;-57
2024/02/08 12:42:41;;;;;;;14.45;10.77;;;;;;;;;;5114392;28;20039;-57
2024/02/08 12:45:11;;;;;;;9.18;7.18;;;;;;;;;;5114075;28;20031;-57
2024/02/08 12:47:39;;;;;;;9.98;7.03;;;;;;;;;;5114640;28;20156;-57
2024/02/08 12:50:09;;;;;;;10.50;6.70;;;;;;;;;;5114217;28;20031;-57
2024/02/08 12:52:40;;;;;;;8.77;6.88;;;;;;;;;;5114008;28;20381;-57
2024/02/08 12:55:07;;;;;;;13.13;9.52;;;;;;;;;;5096125;28;20056;-57
2024/02/08 12:57:36;;;;;;;8.15;7.35;;;;;;;;;;5113997;28;20032;-57
2024/02/08 13:00:12;;;;;;;10.52;6.97;;;;;;;;;;5113935;28;20023;-57
2024/02/08 13:02:38;;;;;;;14.05;8.48;;;;;;;;;;5113923;28;20065;-57
2024/02/08 13:05:04;;;;;;;10.07;7.07;;;;;;;;;;5114155;28;20034;-57
2024/02/08 13:07:29;;;;;;;8.82;7.57;;;;;;;;;;5095983;28;20035;-57
2024/02/08 13:10:03;;;;;;;10.15;8.20;;;;;;;;;;5114044;28;20032;-57
2024/02/08 13:12:29;;;;;;;11.18;9.07;;;;;;;;;;5114096;28;20069;-57
2024/02/08 13:15:05;;;;;;;10.60;8.40;;;;;;;;;;5113785;28;20107;-57
2024/02/08 13:17:33;;;;;;;10.38;8.20;;;;;;;;;;5114059;28;20027;-57
2024/02/08 13:19:59;;;;;;;10.70;8.10;;;;;;;;;;5114017;28;20538;-57
2024/02/08 13:22:25;;;;;;;9.40;7.53;;;;;;;;;;5113991;28;20075;-57
2024/02/08 13:24:54;;;;;;;7.60;6.88;;;;;;;;;;5114818;28;20346;-57
2024/02/08 13:27:28;;;;;;;11.38;7.93;;;;;;;;;;5113943;28;20035;-57
2024/02/08 13:29:54;;;;;;;10.30;8.38;;;;;;;;;;5113611;28;20439;-57
2024/02/08 13:32:27;;;;;;;10.55;9.35;;;;;;;;;;5113909;28;20081;-57
2024/02/08 13:34:53;;;;;;;8.95;7.65;;;;;;;;;;5114162;28;20523;-57
2024/02/08 13:37:18;;;;;;;11.25;7.75;;;;;;;;;;5095477;28;20035;-57
2024/02/08 13:39:44;;;;;;;9.85;8.32;;;;;;;;;;5113590;28;20160;-57
2024/02/08 13:42:12;;;;;;;17.67;10.82;;;;;;;;;;5113887;28;20500;-57
2024/02/08 13:44:38;;;;;;;15.18;10.98;;;;;;;;;;5113826;28;20028;-57
2024/02/08 13:47:04;;;;;;;29.50;18.13;;;;;;;;;;5095683;28;20072;-57
2024/02/08 13:49:32;;;;;;;55.40;30.08;;;;;;;;;;5113680;28;20020;-57
2024/02/08 13:51:58;;;;;;;37.40;24.13;;;;;;;;;;5113628;28;20028;-57
2024/02/08 13:54:23;;;;;;;153.35;78.78;;;;;;;;;;5117113;28;20449;-57
2024/02/08 13:56:52;;;;;;;31.05;19.60;;;;;;;;;;5117318;28;20015;-57
2024/02/08 13:59:17;;;;;;;28.65;17.38;;;;;;;;;;5098527;28;20044;-57
2024/02/08 14:01:44;;;;;;;25.80;16.35;;;;;;;;;;5117264;28;20026;-57
2024/02/08 14:04:10;;;;;;;34.45;18.48;;;;;;;;;;5116926;28;20063;-57
2024/02/08 14:06:41;;;;;;;311.35;168.50;;;;;;;;;;5116798;28;20024;-57
2024/02/08 14:09:19;;;;;;;48.75;28.35;;;;;;;;;;5116766;28;20135;-57
2024/02/08 14:11:51;;;;;;;18.63;11.63;;;;;;;;;;5116722;28;20028;-57
2024/02/08 14:14:17;;;;;;;13.02;9.52;;;;;;;;;;5116696;28;20035;-57
2024/02/08 14:16:47;;;;;;;118.03;68.43;;;;;;;;;;5116972;28;20022;-57
2024/02/08 14:19:15;;;;;;;58.83;32.22;;;;;;;;;;5117155;28;20114;-57
2024/02/08 14:21:41;;;;;;;31.80;19.95;;;;;;;;;;5129767;22;20147;-57
2024/02/08 14:24:11;;;;;;;53.20;32.78;;;;;;;;;;5144401;22;20444;-63
2024/02/08 14:26:37;;;;;;;32.37;19.13;;;;;;;;;;5149601;22;21065;-64
2024/02/08 14:29:05;;;;;;;28.13;15.02;;;;;;;;;;5148105;22;20108;-63
2024/02/08 14:31:35;;;;;;;23.23;11.65;;;;;;;;;;5130857;22;20027;-56
2024/02/08 14:34:02;;;;;;;34.50;22.65;;;;;;;;;;5129964;22;20481;-56
2024/02/08 14:36:28;;;;;;;25.00;13.45;;;;;;;;;;5098302;28;20474;-56
2024/02/08 14:38:53;;;;;;;16.02;9.60;;;;;;;;;;5116192;28;20212;-56
2024/02/08 14:41:34;;;;;;;18.27;10.73;;;;;;;;;;5115941;28;20172;-56
2024/02/08 14:44:06;;;;;;;35.78;20.80;;;;;;;;;;5098471;28;20419;-57
2024/02/08 14:46:41;;;;;;;44.40;26.45;;;;;;;;;;5116278;28;20046;-56
2024/02/08 14:49:17;;;;;;;49.10;24.52;;;;;;;;;;5116273;28;20035;-56
2024/02/08 14:51:48;;;;;;;38.60;21.23;;;;;;;;;;5116116;28;20027;-56
2024/02/08 14:54:13;;;;;;;47.95;26.05;;;;;;;;;;5116712;28;20027;-56
2024/02/08 14:56:42;;;;;;;55.80;34.15;;;;;;;;;;5116599;28;20028;-56
2024/02/08 15:01:39;;;;;;;51.65;29.58;;;;;;;;;;5116086;28;20419;-56
2024/02/08 15:04:07;;;;;;;35.17;23.42;;;;;;;;;;5115101;28;20497;-56
2024/02/08 15:06:42;;;;;;;25.38;16.17;;;;;;;;;;5114661;28;20024;-56
2024/02/08 15:12:00;;;;;;;24.27;14.20;;;;;;;;;;5115440;28;20106;-56
2024/02/08 15:14:28;;;;;;;32.40;16.00;;;;;;;;;;5115852;28;20024;-56
2024/02/08 15:16:54;;;;;;;32.70;21.38;;;;;;;;;;5115451;28;20031;-57
2024/02/08 15:19:25;;;;;;;40.47;28.45;;;;;;;;;;5115249;28;20051;-57
2024/02/08 15:21:52;;;;;;;23.25;17.08;;;;;;;;;;5115690;28;20058;-56
2024/02/08 15:24:21;;;;;;;22.23;15.48;;;;;;;;;;5115352;28;20111;-56
2024/02/08 15:26:50;;;;;;;23.05;16.02;;;;;;;;;;5115562;28;20039;-57
2024/02/08 15:29:35;;;;;;;25.63;17.50;;;;;;;;;;5115416;28;20019;-56
2024/02/08 15:32:17;;;;;;;28.33;17.67;;;;;;;;;;5097349;28;20065;-56
2024/02/08 15:34:53;;;;;;;23.90;16.15;;;;;;;;;;5096969;28;20114;-56
2024/02/08 15:38:19;;;;;;;21.38;12.38;;;;;;;;;;5115712;28;20023;-57
2024/02/08 15:40:12;;;;;;;23.02;12.52;;;;;;;;;;5102127;28;20050;-57
2024/02/08 15:42:39;;;;;;;;;;;;;;;;;;5097742;28;20030;-57
2024/02/08 15:45:10;;;;;;;35.35;20.58;;;;;;;;;;5114933;28;19907;-57
2024/02/08 15:47:38;;;;;;;30.25;17.75;;;;;;;;;;5115424;28;20028;-56
2024/02/08 15:50:14;;;;;;;18.20;12.15;;;;;;;;;;5115216;28;20064;-57
2024/02/08 15:52:42;;;;;;;57.95;33.53;;;;;;;;;;5114915;28;20020;-57
2024/02/08 15:55:14;;;;;;;168.30;101.20;;;;;;;;;;5114712;28;20055;-56
2024/02/08 15:57:45;;;;;;;283.88;179.95;;;;;;;;;;5114678;28;20020;-57
2024/02/08 16:03:01;;;;;;;178.45;116.00;;;;;;;;;;5114608;28;19915;-57
2024/02/08 16:05:29;;;;;;;109.68;77.60;;;;;;;;;;5114529;28;20038;-57
2024/02/08 16:08:05;;;;;;;137.57;93.53;;;;;;;;;;5114573;28;20103;-56
2024/02/08 16:10:31;;;;;;;68.45;48.35;;;;;;;;;;5096857;28;20132;-57
2024/02/08 16:13:06;;;;;;;31.98;26.05;;;;;;;;;;5113597;28;20024;-57
2024/02/08 16:18:29;;;;;;;27.02;24.33;;;;;;;;;;5115090;28;20035;-57
2024/02/08 16:20:54;;;;;;;14.02;11.18;;;;;;;;;;5114582;28;20036;-57
2024/02/08 16:23:23;;;;;;;16.35;14.60;;;;;;;;;;5114857;28;20024;-57
2024/02/08 16:26:05;;;;;;;15.57;13.95;;;;;;;;;;5114249;28;20051;-57
2024/02/08 16:28:36;;;;;;;15.73;14.07;;;;;;;;;;5114767;28;20029;-57
2024/02/08 16:31:10;;;;;;;14.63;13.05;;;;;;;;;;5114209;28;20054;-57
2024/02/08 16:33:54;;;;;;;18.60;13.60;;;;;;;;;;5095780;28;20047;-57
2024/02/08 16:40:07;;;;;;;15.35;10.98;;;;;;;;;;5114013;28;20035;-57
2024/02/08 16:42:01;;;;;;;11.38;10.18;;;;;;;;;;5102635;28;20492;-57
2024/02/08 16:44:37;;;;;;;12.70;10.20;;;;;;;;;;5114200;28;20024;-57
2024/02/08 16:47:10;;;;;;;28.85;21.00;;;;;;;;;;5114644;28;20043;-57
2024/02/08 16:49:42;;;;;;;21.90;13.65;;;;;;;;;;5114618;28;20039;-57
2024/02/08 16:52:10;;;;;;;29.98;18.73;;;;;;;;;;5114022;28;20482;-57
2024/02/08 16:54:46;;;;;;;22.58;15.32;;;;;;;;;;5113893;28;20036;-57